createdAt,value
2023-02-26T00:01:35.348Z,102075.94
2023-02-26T00:04:03.429Z,102092.84
2023-02-26T00:06:33.595Z,102091.50
2023-02-26T00:09:00.491Z,102092.47
2023-02-26T00:11:29.475Z,102095.00
2023-02-26T00:13:56.384Z,102092.66
2023-02-26T00:16:22.903Z,102104.41
2023-02-26T00:18:54.387Z,102117.16
2023-02-26T00:21:23.577Z,102116.16
2023-02-26T00:23:52.551Z,102126.56
2023-02-26T00:26:19.898Z,102124.03
2023-02-26T00:28:47.449Z,102126.22
2023-02-26T00:31:20.459Z,102137.00
2023-02-26T00:33:47.392Z,102141.25
2023-02-26T00:36:46.366Z,102142.13
2023-02-26T00:39:34.661Z,102149.09
2023-02-26T00:42:01.106Z,102154.25
2023-02-26T00:44:28.182Z,102159.50
2023-02-26T00:46:59.884Z,102158.94
2023-02-26T00:49:51.526Z,102163.44
2023-02-26T00:52:36.549Z,102155.28
2023-02-26T00:55:05.529Z,102163.78
2023-02-26T00:57:32.029Z,102169.19
2023-02-26T00:59:58.518Z,102171.34
2023-02-26T01:02:25.297Z,102169.91
2023-02-26T01:04:52.251Z,102161.75
2023-02-26T01:07:24.569Z,102161.75
2023-02-26T01:09:53.448Z,102166.72
2023-02-26T01:12:22.651Z,102168.25
2023-02-26T01:14:52.364Z,102165.25
2023-02-26T01:17:25.221Z,102174.88
2023-02-26T01:20:01.634Z,102173.41
2023-02-26T01:22:50.706Z,102176.84
2023-02-26T01:25:58.271Z,102182.25
2023-02-26T01:28:26.417Z,102183.16
2023-02-26T01:31:01.355Z,102181.78
2023-02-26T01:33:41.576Z,102183.63
2023-02-26T01:36:13.897Z,102185.03
2023-02-26T01:38:56.989Z,102187.78
2023-02-26T01:41:48.047Z,102193.19
2023-02-26T01:44:22.545Z,102191.47
2023-02-26T01:47:04.210Z,102193.09
2023-02-26T01:49:31.487Z,102196.75
2023-02-26T01:52:00.343Z,102201.75
2023-02-26T01:54:33.909Z,102198.47
2023-02-26T01:57:05.092Z,102196.13
2023-02-26T01:59:39.121Z,102206.47
2023-02-26T02:02:11.062Z,102205.16
2023-02-26T02:04:43.184Z,102212.66
2023-02-26T02:07:10.446Z,102211.09
2023-02-26T02:09:37.291Z,102215.28
2023-02-26T02:12:22.520Z,102216.09
2023-02-26T02:15:13.268Z,102216.09
2023-02-26T02:17:45.745Z,102221.72
2023-02-26T02:20:48.120Z,102211.84
2023-02-26T02:23:26.201Z,102233.09
2023-02-26T02:25:58.768Z,102232.38
2023-02-26T02:28:31.288Z,102240.84
2023-02-26T02:31:12.332Z,102239.44
2023-02-26T02:34:12.921Z,102240.56
2023-02-26T02:36:45.507Z,102245.13
2023-02-26T02:39:22.314Z,102249.75
2023-02-26T02:42:02.088Z,102254.03
2023-02-26T02:44:31.338Z,102251.59
2023-02-26T02:47:00.402Z,102257.31
2023-02-26T02:49:45.050Z,102254.56
2023-02-26T02:52:17.576Z,102261.91
2023-02-26T02:54:49.133Z,102256.84
2023-02-26T02:57:23.155Z,102258.66
2023-02-26T02:59:57.214Z,102265.31
2023-02-26T03:02:32.602Z,102267.44
2023-02-26T03:05:03.884Z,102266.75
2023-02-26T03:07:41.521Z,102271.00
2023-02-26T03:10:11.769Z,102273.97
2023-02-26T03:12:38.268Z,102273.38
2023-02-26T03:15:05.377Z,102276.06
2023-02-26T03:17:53.158Z,102282.81
2023-02-26T03:20:35.026Z,102285.41
2023-02-26T03:23:07.226Z,102285.34
2023-02-26T03:25:56.400Z,102284.56
2023-02-26T03:28:34.315Z,102292.00
2023-02-26T03:31:10.131Z,102292.22
2023-02-26T03:33:59.608Z,102294.03
2023-02-26T03:36:46.648Z,102297.38
2023-02-26T03:39:20.303Z,102300.25
2023-02-26T03:41:56.631Z,102299.72
2023-02-26T03:44:32.466Z,102302.84
2023-02-26T03:47:04.954Z,102310.50
2023-02-26T03:49:38.778Z,102308.28
2023-02-26T03:52:06.602Z,102314.41
2023-02-26T03:54:54.317Z,102321.19
2023-02-26T03:57:23.195Z,102318.78
2023-02-26T03:59:49.798Z,102325.47
2023-02-26T04:02:24.690Z,102327.25
2023-02-26T04:04:56.962Z,102331.47
2023-02-26T04:07:23.983Z,102329.09
2023-02-26T04:09:51.894Z,102325.06
2023-02-26T04:12:23.425Z,102329.50
2023-02-26T04:14:50.469Z,102343.00
2023-02-26T04:17:20.365Z,102343.09
2023-02-26T04:19:46.822Z,102352.47
2023-02-26T04:22:13.330Z,102358.50
2023-02-26T04:24:39.890Z,102353.72
2023-02-26T04:27:08.700Z,102354.63
2023-02-26T04:29:35.444Z,102358.91
2023-02-26T04:32:02.177Z,102370.63
2023-02-26T04:34:28.846Z,102364.84
2023-02-26T04:36:57.893Z,102372.34
2023-02-26T04:39:29.115Z,102371.44
2023-02-26T04:41:57.834Z,102381.47
2023-02-26T04:44:26.662Z,102378.06
2023-02-26T04:46:55.883Z,102387.41
2023-02-26T04:49:22.322Z,102387.63
2023-02-26T04:51:48.990Z,102394.41
2023-02-26T04:54:15.604Z,102400.63
2023-02-26T04:56:45.010Z,102394.88
2023-02-26T04:59:11.494Z,102398.28
2023-02-26T05:01:38.130Z,102400.97
2023-02-26T05:04:09.255Z,102405.31
2023-02-26T05:06:35.805Z,102412.19
2023-02-26T05:09:02.605Z,102414.66
2023-02-26T05:11:29.182Z,102422.25
2023-02-26T05:13:56.547Z,102423.84
2023-02-26T05:16:23.130Z,102424.03
2023-02-26T05:18:49.699Z,102430.00
2023-02-26T05:21:16.275Z,102432.41
2023-02-26T05:23:45.189Z,102436.66
2023-02-26T05:26:16.509Z,102436.50
2023-02-26T05:28:45.830Z,102445.78
2023-02-26T05:31:13.894Z,102441.75
2023-02-26T05:33:43.213Z,102444.41
2023-02-26T05:36:10.027Z,102444.50
2023-02-26T05:38:39.058Z,102453.84
2023-02-26T05:41:10.560Z,102454.09
2023-02-26T05:43:37.253Z,102457.63
2023-02-26T05:46:04.231Z,102466.81
2023-02-26T05:48:33.330Z,102464.44
2023-02-26T05:51:01.311Z,102464.50
2023-02-26T05:53:30.197Z,102484.03
2023-02-26T05:55:56.752Z,102479.94
2023-02-26T05:58:25.808Z,102478.28
2023-02-26T06:00:52.400Z,102487.56
2023-02-26T06:03:18.966Z,102492.84
2023-02-26T06:05:50.332Z,102493.50
2023-02-26T06:08:16.833Z,102500.09
2023-02-26T06:10:49.949Z,102498.09
2023-02-26T06:13:18.499Z,102498.13
2023-02-26T06:15:47.249Z,102509.03
2023-02-26T06:18:13.792Z,102510.75
2023-02-26T06:20:40.221Z,102513.41
2023-02-26T06:23:06.738Z,102503.38
2023-02-26T06:25:35.964Z,102515.03
2023-02-26T06:28:02.471Z,102511.69
2023-02-26T06:30:35.375Z,102519.38
2023-02-26T06:33:01.828Z,102525.22
2023-02-26T06:35:30.990Z,102526.81
2023-02-26T06:37:59.972Z,102525.22
2023-02-26T06:40:27.007Z,102534.56
2023-02-26T06:42:55.710Z,102541.13
2023-02-26T06:45:25.267Z,102547.03
2023-02-26T06:47:52.830Z,102546.22
2023-02-26T06:50:21.031Z,102547.78
2023-02-26T06:52:50.050Z,102548.44
2023-02-26T06:55:18.664Z,102564.31
2023-02-26T06:57:47.421Z,102554.13
2023-02-26T07:00:16.704Z,102565.53
2023-02-26T07:02:45.293Z,102568.88
2023-02-26T07:05:14.006Z,102579.72
2023-02-26T07:07:47.428Z,102580.53
2023-02-26T07:10:14.394Z,102581.19
2023-02-26T07:12:48.501Z,102592.41
2023-02-26T07:15:14.969Z,102593.00
2023-02-26T07:17:41.486Z,102599.06
2023-02-26T07:20:10.473Z,102598.03
2023-02-26T07:22:40.204Z,102599.34
2023-02-26T07:25:07.742Z,102609.81
2023-02-26T07:27:36.850Z,102605.25
2023-02-26T07:30:07.582Z,102606.06
2023-02-26T07:32:39.824Z,102611.00
2023-02-26T07:35:09.817Z,102611.69
2023-02-26T07:37:38.587Z,102622.97
2023-02-26T07:40:05.585Z,102618.25
2023-02-26T07:42:32.015Z,102622.31
2023-02-26T07:45:00.937Z,102624.69
2023-02-26T07:47:27.789Z,102622.22
2023-02-26T07:49:56.703Z,102629.66
2023-02-26T07:52:23.560Z,102631.09
2023-02-26T07:54:50.008Z,102632.53
2023-02-26T07:57:16.503Z,102632.31
2023-02-26T07:59:42.967Z,102635.34
2023-02-26T08:02:13.303Z,102642.50
2023-02-26T08:04:40.201Z,102638.84
2023-02-26T08:07:07.975Z,102648.13
2023-02-26T08:09:34.508Z,102641.50
2023-02-26T08:12:01.014Z,102648.16
2023-02-26T08:14:32.631Z,102655.63
2023-02-26T08:16:59.224Z,102661.72
2023-02-26T08:19:25.900Z,102659.53
2023-02-26T08:21:52.442Z,102666.16
2023-02-26T08:24:18.923Z,102678.59
2023-02-26T08:26:47.946Z,102679.34
2023-02-26T08:29:14.941Z,102683.59
2023-02-26T08:31:44.239Z,102685.19
2023-02-26T08:34:10.754Z,102694.59
2023-02-26T08:36:39.509Z,102689.72
2023-02-26T08:39:06.878Z,102693.94
2023-02-26T08:41:38.702Z,102694.44
2023-02-26T08:44:10.456Z,102699.94
2023-02-26T08:46:37.298Z,102697.91
2023-02-26T08:49:03.804Z,102701.34
2023-02-26T08:51:30.420Z,102709.09
2023-02-26T08:54:00.153Z,102708.59
2023-02-26T08:56:33.988Z,102708.72
2023-02-26T08:59:03.207Z,102707.84
2023-02-26T09:01:31.796Z,102731.72
2023-02-26T09:03:58.289Z,102722.00
2023-02-26T09:06:27.808Z,102727.25
2023-02-26T09:08:55.733Z,102726.44
2023-02-26T09:11:24.753Z,102733.09
2023-02-26T09:13:51.564Z,102733.06
2023-02-26T09:16:18.073Z,102726.88
2023-02-26T09:18:46.877Z,102725.53
2023-02-26T09:21:15.728Z,102736.19
2023-02-26T09:23:44.669Z,102733.53
2023-02-26T09:26:11.177Z,102731.59
2023-02-26T09:28:37.728Z,102733.88
2023-02-26T09:31:09.848Z,102738.38
2023-02-26T09:33:36.586Z,102739.56
2023-02-26T09:36:03.678Z,102735.59
2023-02-26T09:38:30.230Z,102743.63
2023-02-26T09:41:05.896Z,102746.28
2023-02-26T09:43:46.797Z,102738.19
2023-02-26T09:46:31.905Z,102747.91
2023-02-26T09:49:19.099Z,102750.22
2023-02-26T09:51:52.753Z,102749.00
2023-02-26T09:54:30.455Z,102744.69
2023-02-26T09:57:00.966Z,102755.25
2023-02-26T09:59:34.850Z,102757.66
2023-02-26T10:02:17.702Z,102769.72
2023-02-26T10:04:53.414Z,102768.78
2023-02-26T10:07:29.627Z,102773.09
2023-02-26T10:10:14.677Z,102767.53
2023-02-26T10:12:45.666Z,102773.34
2023-02-26T10:15:15.573Z,102767.69
2023-02-26T10:18:05.026Z,102766.88
2023-02-26T10:20:39.202Z,102777.19
2023-02-26T10:23:14.804Z,102781.16
2023-02-26T10:25:49.005Z,102796.78
2023-02-26T10:28:39.621Z,102784.25
2023-02-26T10:31:17.891Z,102788.69
2023-02-26T10:33:48.913Z,102787.31
2023-02-26T10:36:40.575Z,102793.75
2023-02-26T10:39:35.353Z,102803.16
2023-02-26T10:42:12.268Z,102794.59
2023-02-26T10:44:49.194Z,102782.97
2023-02-26T10:47:23.661Z,102793.25
2023-02-26T10:50:06.409Z,102803.91
2023-02-26T10:52:36.469Z,102812.56
2023-02-26T10:55:25.490Z,102802.22
2023-02-26T10:58:04.203Z,102795.72
2023-02-26T11:00:35.197Z,102793.38
2023-02-26T11:03:06.509Z,102812.06
2023-02-26T11:05:36.602Z,102796.47
2023-02-26T11:08:09.292Z,102814.09
2023-02-26T11:10:52.738Z,102805.03
2023-02-26T11:13:22.887Z,102812.56
2023-02-26T11:15:52.578Z,102817.22
2023-02-26T11:18:24.952Z,102814.94
2023-02-26T11:20:57.465Z,102817.88
2023-02-26T11:23:31.648Z,102811.41
2023-02-26T11:26:05.294Z,102819.09
2023-02-26T11:28:35.123Z,102820.44
2023-02-26T11:31:09.704Z,102814.81
2023-02-26T11:33:44.158Z,102814.75
2023-02-26T11:36:19.043Z,102808.38
2023-02-26T11:38:52.009Z,102820.72
2023-02-26T11:41:21.056Z,102814.38
2023-02-26T11:43:56.686Z,102820.09
2023-02-26T11:46:28.980Z,102823.91
2023-02-26T11:48:58.648Z,102819.59
2023-02-26T11:51:32.037Z,102808.81
2023-02-26T11:54:04.110Z,102800.06
2023-02-26T11:56:31.686Z,102802.16
2023-02-26T11:59:09.021Z,102810.44
2023-02-26T12:01:37.172Z,102810.00
2023-02-26T12:04:06.218Z,102804.84
2023-02-26T12:06:35.781Z,102800.34
2023-02-26T12:09:02.648Z,102808.75
2023-02-26T12:12:12.520Z,102803.31
2023-02-26T12:15:17.010Z,102810.00
2023-02-26T12:18:01.827Z,102807.75
2023-02-26T12:20:46.153Z,102799.06
2023-02-26T12:23:14.885Z,102795.53
2023-02-26T12:25:50.439Z,102793.50
2023-02-26T12:28:58.765Z,102805.53
2023-02-26T12:32:03.223Z,102791.13
2023-02-26T12:34:41.645Z,102801.50
2023-02-26T12:37:12.449Z,102799.75
2023-02-26T12:40:00.509Z,102796.00
2023-02-26T12:42:29.820Z,102803.38
2023-02-26T12:45:01.631Z,102794.56
2023-02-26T12:48:10.613Z,102787.41
2023-02-26T12:50:56.482Z,102799.00
2023-02-26T12:53:28.731Z,102792.56
2023-02-26T12:56:09.693Z,102789.91
2023-02-26T12:59:05.973Z,102790.78
2023-02-26T13:02:00.889Z,102791.56
2023-02-26T13:05:05.240Z,102791.31
2023-02-26T13:07:49.714Z,102800.00
2023-02-26T13:10:18.772Z,102797.03
2023-02-26T13:13:03.437Z,102803.47
2023-02-26T13:15:54.524Z,102799.31
2023-02-26T13:18:34.502Z,102799.94
2023-02-26T13:21:27.989Z,102789.09
2023-02-26T13:23:59.290Z,102789.38
2023-02-26T13:26:31.085Z,102789.78
2023-02-26T13:29:23.560Z,102786.16
2023-02-26T13:31:55.910Z,102786.91
2023-02-26T13:34:50.851Z,102786.47
2023-02-26T13:37:30.092Z,102782.91
2023-02-26T13:40:20.240Z,102786.91
2023-02-26T13:43:02.091Z,102790.13
2023-02-26T13:46:07.879Z,102788.88
2023-02-26T13:48:45.578Z,102782.88
2023-02-26T13:51:39.146Z,102790.00
2023-02-26T13:54:15.470Z,102787.16
2023-02-26T13:57:09.044Z,102788.88
2023-02-26T13:59:53.883Z,102791.31
2023-02-26T14:02:20.273Z,102786.41
2023-02-26T14:04:59.294Z,102783.06
2023-02-26T14:07:51.214Z,102781.00
2023-02-26T14:10:26.387Z,102783.53
2023-02-26T14:13:11.278Z,102779.19
2023-02-26T14:15:48.320Z,102785.22
2023-02-26T14:18:26.786Z,102781.75
2023-02-26T14:20:55.628Z,102779.44
2023-02-26T14:23:34.903Z,102795.19
2023-02-26T14:26:11.621Z,102798.06
2023-02-26T14:29:04.377Z,102797.78
2023-02-26T14:31:52.946Z,102788.56
2023-02-26T14:34:27.144Z,102797.22
2023-02-26T14:36:58.264Z,102796.63
2023-02-26T14:39:28.310Z,102795.06
2023-02-26T14:41:59.817Z,102792.00
2023-02-26T14:44:30.663Z,102798.47
2023-02-26T14:46:57.910Z,102786.59
2023-02-26T14:49:34.818Z,102791.50
2023-02-26T14:52:21.566Z,102797.63
2023-02-26T14:55:12.282Z,102796.84
2023-02-26T14:58:05.767Z,102797.53
2023-02-26T15:00:41.615Z,102798.78
2023-02-26T15:03:35.428Z,102793.47
2023-02-26T15:06:36.030Z,102801.34
2023-02-26T15:09:48.770Z,102801.75
2023-02-26T15:12:43.214Z,102793.09
2023-02-26T15:15:30.769Z,102802.88
2023-02-26T15:18:00.291Z,102791.13
2023-02-26T15:20:58.009Z,102801.75
2023-02-26T15:23:37.209Z,102799.63
2023-02-26T15:26:08.192Z,102796.25
2023-02-26T15:28:43.117Z,102800.97
2023-02-26T15:31:16.044Z,102801.03
2023-02-26T15:33:45.502Z,102806.94
2023-02-26T15:36:21.902Z,102806.88
2023-02-26T15:38:58.777Z,102811.34
2023-02-26T15:41:27.574Z,102803.69
2023-02-26T15:44:00.579Z,102808.56
2023-02-26T15:46:33.740Z,102817.97
2023-02-26T15:49:12.986Z,102802.38
2023-02-26T15:51:40.418Z,102808.28
2023-02-26T15:54:07.045Z,102810.63
2023-02-26T15:56:39.308Z,102807.78
2023-02-26T15:59:28.050Z,102815.94
2023-02-26T16:01:55.421Z,102817.34
2023-02-26T16:04:23.913Z,102818.69
2023-02-26T16:06:53.592Z,102814.88
2023-02-26T16:09:34.711Z,102811.91
2023-02-26T16:12:09.218Z,102817.28
2023-02-26T16:14:39.663Z,102821.69
2023-02-26T16:17:11.461Z,102816.88
2023-02-26T16:19:49.554Z,102819.44
2023-02-26T16:22:19.125Z,102821.66
2023-02-26T16:24:52.768Z,102820.41
2023-02-26T16:27:27.536Z,102828.44
2023-02-26T16:29:57.282Z,102833.81
2023-02-26T16:32:26.667Z,102831.75
2023-02-26T16:35:00.127Z,102837.94
2023-02-26T16:37:29.832Z,102844.13
2023-02-26T16:40:33.844Z,102847.88
2023-02-26T16:43:33.411Z,102857.47
2023-02-26T16:46:04.151Z,102861.00
2023-02-26T16:48:37.276Z,102864.84
2023-02-26T16:51:13.924Z,102863.56
2023-02-26T16:53:51.248Z,102869.94
2023-02-26T16:56:24.800Z,102868.75
2023-02-26T16:59:13.155Z,102873.31
2023-02-26T17:01:49.477Z,102869.66
2023-02-26T17:04:19.225Z,102883.75
2023-02-26T17:06:47.602Z,102888.28
2023-02-26T17:09:35.182Z,102892.09
2023-02-26T17:12:10.092Z,102890.00
2023-02-26T17:14:40.980Z,102890.41
2023-02-26T17:17:10.283Z,102901.03
2023-02-26T17:19:37.400Z,102907.03
2023-02-26T17:22:05.570Z,102905.72
2023-02-26T17:24:47.637Z,102905.34
2023-02-26T17:27:25.665Z,102910.59
2023-02-26T17:29:54.969Z,102918.47
2023-02-26T17:32:27.945Z,102919.47
2023-02-26T17:34:56.140Z,102919.00
2023-02-26T17:37:28.680Z,102927.84
2023-02-26T17:39:59.994Z,102932.28
2023-02-26T17:42:27.134Z,102933.50
2023-02-26T17:44:55.193Z,102935.50
2023-02-26T17:47:29.299Z,102936.56
2023-02-26T17:49:55.815Z,102935.22
2023-02-26T17:52:25.422Z,102943.75
2023-02-26T17:54:54.726Z,102940.63
2023-02-26T17:57:22.160Z,102945.06
2023-02-26T17:59:49.361Z,102941.88
2023-02-26T18:02:25.484Z,102943.16
2023-02-26T18:04:52.095Z,102945.78
2023-02-26T18:07:24.463Z,102962.06
2023-02-26T18:09:53.443Z,102962.34
2023-02-26T18:12:24.595Z,102964.34
2023-02-26T18:14:51.393Z,102961.16
2023-02-26T18:17:29.620Z,102964.50
2023-02-26T18:20:04.035Z,102966.28
2023-02-26T18:22:30.634Z,102960.56
2023-02-26T18:25:00.550Z,102969.31
2023-02-26T18:27:27.828Z,102971.91
2023-02-26T18:29:54.538Z,102966.09
2023-02-26T18:32:24.531Z,102970.50
2023-02-26T18:34:51.807Z,102982.75
2023-02-26T18:37:21.352Z,102983.00
2023-02-26T18:39:47.924Z,102985.53
2023-02-26T18:42:30.457Z,102982.56
2023-02-26T18:45:01.747Z,102988.00
2023-02-26T18:47:30.544Z,102982.47
2023-02-26T18:49:59.339Z,102988.50
2023-02-26T18:52:30.634Z,102984.41
2023-02-26T18:54:57.234Z,102984.47
2023-02-26T18:57:29.500Z,102987.91
2023-02-26T18:59:56.632Z,102994.00
2023-02-26T19:02:23.553Z,102995.13
2023-02-26T19:04:50.068Z,103000.16
2023-02-26T19:07:19.544Z,102991.78
2023-02-26T19:09:46.180Z,102992.47
2023-02-26T19:12:19.529Z,102993.97
2023-02-26T19:14:51.421Z,102991.63
2023-02-26T19:17:18.363Z,102993.44
2023-02-26T19:19:44.973Z,102995.00
2023-02-26T19:22:16.193Z,103005.28
2023-02-26T19:24:44.065Z,103005.66
2023-02-26T19:27:13.286Z,103006.84
2023-02-26T19:29:39.938Z,103009.56
2023-02-26T19:32:09.262Z,103011.41
2023-02-26T19:34:38.522Z,103016.84
2023-02-26T19:37:05.604Z,103015.34
2023-02-26T19:39:34.991Z,103018.78
2023-02-26T19:42:01.754Z,103016.97
2023-02-26T19:44:28.657Z,103019.47
2023-02-26T19:46:55.452Z,103018.56
2023-02-26T19:49:23.147Z,103015.22
2023-02-26T19:51:55.284Z,103022.66
2023-02-26T19:54:24.378Z,103021.63
2023-02-26T19:56:51.101Z,103019.03
2023-02-26T19:59:20.613Z,103020.13
2023-02-26T20:01:49.557Z,103021.44
2023-02-26T20:04:17.092Z,103025.03
2023-02-26T20:06:46.158Z,103016.94
2023-02-26T20:09:15.070Z,103016.31
2023-02-26T20:11:41.602Z,103028.34
2023-02-26T20:14:08.465Z,103022.75
2023-02-26T20:16:37.804Z,103028.91
2023-02-26T20:19:06.557Z,103029.19
2023-02-26T20:21:34.641Z,103033.75
2023-02-26T20:24:03.533Z,103022.75
2023-02-26T20:26:32.858Z,103031.28
2023-02-26T20:29:01.716Z,103027.22
2023-02-26T20:31:32.861Z,103032.56
2023-02-26T20:34:02.427Z,103032.72
2023-02-26T20:36:31.993Z,103039.72
2023-02-26T20:39:02.491Z,103039.09
2023-02-26T20:41:29.083Z,103043.53
2023-02-26T20:43:57.698Z,103050.50
2023-02-26T20:46:25.156Z,103048.91
2023-02-26T20:48:51.611Z,103046.63
2023-02-26T20:51:20.355Z,103059.72
2023-02-26T20:53:46.974Z,103054.00
2023-02-26T20:56:13.542Z,103053.25
2023-02-26T20:58:42.534Z,103050.84
2023-02-26T21:01:09.585Z,103052.63
2023-02-26T21:03:36.084Z,103050.38
2023-02-26T21:06:02.612Z,103052.97
2023-02-26T21:08:29.177Z,103049.56
2023-02-26T21:10:57.092Z,103056.22
2023-02-26T21:13:25.208Z,103060.50
2023-02-26T21:15:51.713Z,103062.38
2023-02-26T21:18:18.630Z,103064.22
2023-02-26T21:20:45.155Z,103055.94
2023-02-26T21:23:13.031Z,103061.16
2023-02-26T21:25:42.272Z,103065.47
2023-02-26T21:28:08.762Z,103076.47
2023-02-26T21:30:38.033Z,103080.50
2023-02-26T21:33:04.605Z,103081.56
2023-02-26T21:35:31.201Z,103084.16
2023-02-26T21:38:02.405Z,103080.75
2023-02-26T21:40:31.747Z,103085.81
2023-02-26T21:43:00.517Z,103082.41
2023-02-26T21:45:29.991Z,103082.41
2023-02-26T21:47:59.592Z,103086.69
2023-02-26T21:50:29.094Z,103088.50
2023-02-26T21:52:59.449Z,103086.94
2023-02-26T21:55:28.271Z,103083.50
2023-02-26T21:57:57.568Z,103091.22
2023-02-26T22:00:24.287Z,103095.56
2023-02-26T22:02:51.071Z,103082.91
2023-02-26T22:05:18.593Z,103088.03
2023-02-26T22:07:50.318Z,103083.88
2023-02-26T22:10:16.841Z,103087.31
2023-02-26T22:12:43.342Z,103089.84
2023-02-26T22:15:13.370Z,103088.16
2023-02-26T22:17:40.254Z,103078.28
2023-02-26T22:20:09.735Z,103076.50
2023-02-26T22:22:37.874Z,103077.31
2023-02-26T22:25:07.693Z,103080.72
2023-02-26T22:27:35.548Z,103077.38
2023-02-26T22:30:04.480Z,103080.06
2023-02-26T22:32:30.975Z,103078.44
2023-02-26T22:34:59.713Z,103088.59
2023-02-26T22:37:26.208Z,103090.38
2023-02-26T22:39:52.651Z,103087.88
2023-02-26T22:42:21.374Z,103086.19
2023-02-26T22:44:47.923Z,103090.47
2023-02-26T22:47:19.205Z,103104.75
2023-02-26T22:49:46.209Z,103100.50
2023-02-26T22:52:17.190Z,103104.75
2023-02-26T22:54:46.389Z,103109.00
2023-02-26T22:57:15.389Z,103118.34
2023-02-26T22:59:42.180Z,103115.00
2023-02-26T23:02:13.508Z,103115.97
2023-02-26T23:04:42.633Z,103115.19
2023-02-26T23:07:09.382Z,103116.03
2023-02-26T23:09:38.244Z,103117.78
2023-02-26T23:12:05.049Z,103118.59
2023-02-26T23:14:31.541Z,103118.59
2023-02-26T23:16:59.511Z,103116.84
2023-02-26T23:19:29.738Z,103123.50
2023-02-26T23:22:00.722Z,103121.72
2023-02-26T23:24:29.677Z,103119.16
2023-02-26T23:26:56.138Z,103121.63
2023-02-26T23:29:23.038Z,103116.56
2023-02-26T23:31:49.741Z,103122.50
2023-02-26T23:34:16.852Z,103116.63
2023-02-26T23:36:43.408Z,103122.59
2023-02-26T23:39:13.568Z,103114.22
2023-02-26T23:41:42.554Z,103120.16
2023-02-26T23:44:09.044Z,103123.44
2023-02-26T23:46:38.174Z,103125.25
2023-02-26T23:49:04.919Z,103121.13
2023-02-26T23:51:31.605Z,103119.47
2023-02-26T23:53:58.104Z,103132.28
2023-02-26T23:56:29.177Z,103129.81
2023-02-26T23:58:55.683Z,103129.09
